createdAt,value
2017-07-22T00:01:52.110Z,100193
2017-07-22T00:06:56.101Z,100188
2017-07-22T00:11:59.311Z,100180
2017-07-22T00:17:02.528Z,100175
2017-07-22T00:22:05.710Z,100172
2017-07-22T00:27:08.947Z,100166
2017-07-22T00:32:12.164Z,100158
2017-07-22T00:37:16.141Z,100157
2017-07-22T00:42:19.333Z,100150
2017-07-22T00:47:22.530Z,100144
2017-07-22T00:52:26.621Z,100130
2017-07-22T00:57:29.845Z,100118
2017-07-22T01:02:33.844Z,100099
2017-07-22T01:07:37.063Z,100091
2017-07-22T01:12:40.259Z,100083
2017-07-22T01:17:43.461Z,100080
2017-07-22T01:22:46.661Z,100065
2017-07-22T01:27:49.853Z,100050
2017-07-22T01:32:53.066Z,100042
2017-07-22T01:37:56.277Z,100042
2017-07-22T01:42:59.482Z,100041
2017-07-22T01:48:02.692Z,100024
2017-07-22T01:53:05.893Z,99998
2017-07-22T01:58:09.085Z,99990
2017-07-22T02:03:12.266Z,99978
2017-07-22T02:08:15.441Z,99999
2017-07-22T02:13:18.665Z,100005
2017-07-22T02:18:22.827Z,100013
2017-07-22T02:23:26.020Z,100027
2017-07-22T02:28:29.237Z,100039
2017-07-22T02:33:32.442Z,100052
2017-07-22T02:38:35.658Z,100052
2017-07-22T02:43:38.881Z,100065
2017-07-22T02:48:42.088Z,100087
2017-07-22T02:53:45.273Z,100088
2017-07-22T02:58:48.495Z,100095
2017-07-22T03:03:51.685Z,100096
2017-07-22T03:08:54.873Z,100095
2017-07-22T03:13:58.055Z,100101
2017-07-22T03:19:02.014Z,100104
2017-07-22T03:24:05.188Z,100111
2017-07-22T03:29:09.146Z,100106
2017-07-22T03:34:12.348Z,100115
2017-07-22T03:39:15.537Z,100129
2017-07-22T03:44:19.492Z,100131
2017-07-22T03:49:22.686Z,100129
2017-07-22T03:54:25.885Z,100129
2017-07-22T03:59:29.827Z,100134
2017-07-22T04:04:33.024Z,100130
2017-07-22T04:09:36.231Z,100122
2017-07-22T04:14:39.423Z,100122
2017-07-22T04:19:43.383Z,100128
2017-07-22T04:24:46.589Z,100128
2017-07-22T04:29:49.784Z,100131
2017-07-22T04:34:52.985Z,100132
2017-07-22T04:39:56.192Z,100138
2017-07-22T04:44:59.684Z,100147
2017-07-22T04:50:03.721Z,100150
2017-07-22T04:55:07.648Z,100147
2017-07-22T05:00:10.843Z,100161
2017-07-22T05:05:14.041Z,100151
2017-07-22T05:10:18.010Z,100154
2017-07-22T05:15:21.189Z,100170
2017-07-22T05:20:24.397Z,100160
2017-07-22T05:25:27.574Z,100162
2017-07-22T05:30:30.784Z,100172
2017-07-22T05:35:34.738Z,100178
2017-07-22T05:40:37.945Z,100168
2017-07-22T05:45:41.152Z,100175
2017-07-22T05:50:44.369Z,100182
2017-07-22T05:55:47.558Z,100197
2017-07-22T06:00:50.933Z,100194
2017-07-22T06:05:54.179Z,100207
2017-07-22T06:10:57.484Z,100214
2017-07-22T06:16:01.437Z,100215
2017-07-22T06:21:04.609Z,100212
2017-07-22T06:26:08.561Z,100215
2017-07-22T06:31:11.757Z,100218
2017-07-22T06:36:14.955Z,100204
2017-07-22T06:41:18.211Z,100204
2017-07-22T06:46:21.401Z,100209
2017-07-22T06:51:24.630Z,100210
2017-07-22T06:56:27.810Z,100208
2017-07-22T07:01:31.028Z,100226
2017-07-22T07:06:34.211Z,100210
2017-07-22T07:11:37.419Z,100215
2017-07-22T07:16:40.611Z,100216
2017-07-22T07:21:43.840Z,100222
2017-07-22T07:26:47.096Z,100236
2017-07-22T07:31:51.067Z,100227
2017-07-22T07:36:54.257Z,100243
2017-07-22T07:41:57.468Z,100254
2017-07-22T07:47:01.439Z,100249
2017-07-22T07:52:04.645Z,100253
2017-07-22T07:57:07.825Z,100237
2017-07-22T08:02:11.024Z,100237
2017-07-22T08:07:14.213Z,100247
2017-07-22T08:12:17.404Z,100252
2017-07-22T08:17:20.606Z,100246
2017-07-22T08:22:24.615Z,100238
2017-07-22T08:27:27.814Z,100242
2017-07-22T08:32:30.988Z,100243
2017-07-22T08:37:34.175Z,100247
2017-07-22T08:42:37.370Z,100251
2017-07-22T08:47:41.339Z,100256
2017-07-22T08:52:44.596Z,100262
2017-07-22T08:57:48.543Z,100262
2017-07-22T09:02:51.720Z,100262
2017-07-22T09:07:55.802Z,100265
2017-07-22T09:12:59.003Z,100264
2017-07-22T09:18:02.196Z,100265
2017-07-22T09:23:05.588Z,100263
2017-07-22T09:28:09.533Z,100266
2017-07-22T09:33:12.766Z,100267
2017-07-22T09:38:15.965Z,100265
2017-07-22T09:43:19.173Z,100270
2017-07-22T09:48:22.352Z,100268
2017-07-22T09:53:25.555Z,100270
2017-07-22T09:58:28.737Z,100277
2017-07-22T10:03:32.687Z,100266
2017-07-22T10:08:35.891Z,100256
2017-07-22T10:13:39.068Z,100266
2017-07-22T10:18:42.277Z,100247
2017-07-22T10:23:45.429Z,100256
2017-07-22T10:28:48.666Z,100254
2017-07-22T10:33:51.852Z,100246
2017-07-22T10:38:55.046Z,100256
2017-07-22T10:43:58.253Z,100255
2017-07-22T10:49:01.448Z,100262
2017-07-22T10:54:04.678Z,100260
2017-07-22T10:59:07.859Z,100252
2017-07-22T11:04:11.073Z,100250
2017-07-22T11:09:14.265Z,100259
2017-07-22T11:14:17.831Z,100265
2017-07-22T11:19:21.021Z,100258
2017-07-22T11:24:24.238Z,100273
2017-07-22T11:29:27.504Z,100267
2017-07-22T11:34:31.470Z,100266
2017-07-22T11:39:34.663Z,100254
2017-07-22T11:44:37.856Z,100249
2017-07-22T11:49:41.051Z,100253
2017-07-22T11:54:44.252Z,100256
2017-07-22T11:59:47.427Z,100255
2017-07-22T12:04:50.626Z,100256
2017-07-22T12:09:53.820Z,100247
2017-07-22T12:14:57.016Z,100241
2017-07-22T12:20:00.229Z,100242
2017-07-22T12:25:03.435Z,100236
2017-07-22T12:30:06.630Z,100235
2017-07-22T12:35:09.838Z,100226
2017-07-22T12:40:13.027Z,100217
2017-07-22T12:45:16.212Z,100224
2017-07-22T12:50:20.174Z,100225
2017-07-22T12:55:23.383Z,100235
2017-07-22T13:00:26.577Z,100225
2017-07-22T13:05:29.785Z,100227
2017-07-22T13:10:32.964Z,100218
2017-07-22T13:15:36.952Z,100209
2017-07-22T13:20:40.211Z,100207
2017-07-22T13:25:43.422Z,100206
2017-07-22T13:30:46.676Z,100210
2017-07-22T13:35:49.897Z,100209
2017-07-22T13:40:53.118Z,100220
2017-07-22T13:45:56.309Z,100243
2017-07-22T13:50:59.544Z,100224
2017-07-22T13:56:02.742Z,100210
2017-07-22T14:01:06.720Z,100208
2017-07-22T14:06:09.909Z,100213
2017-07-22T14:11:13.114Z,100202
2017-07-22T14:16:16.315Z,100192
2017-07-22T14:21:19.506Z,100183
2017-07-22T14:26:23.528Z,100186
2017-07-22T14:31:27.490Z,100184
2017-07-22T14:36:30.787Z,100183
2017-07-22T14:41:33.980Z,100179
2017-07-22T14:46:37.167Z,100174
2017-07-22T14:51:40.357Z,100170
2017-07-22T14:56:43.601Z,100160
2017-07-22T15:01:47.541Z,100162
2017-07-22T15:06:50.750Z,100159
2017-07-22T15:11:53.957Z,100161
2017-07-22T15:16:57.205Z,100154
2017-07-22T15:22:00.423Z,100152
2017-07-22T15:27:03.752Z,100146
2017-07-22T15:32:07.721Z,100145
2017-07-22T15:37:10.899Z,100146
2017-07-22T15:42:14.129Z,100135
2017-07-22T15:47:17.320Z,100131
2017-07-22T15:52:20.548Z,100130
2017-07-22T15:57:23.748Z,100122
2017-07-22T16:02:26.949Z,100118
2017-07-22T16:07:30.143Z,100117
2017-07-22T16:12:33.323Z,100117
2017-07-22T16:17:37.279Z,100125
2017-07-22T16:22:40.478Z,100110
2017-07-22T16:27:43.690Z,100116
2017-07-22T16:32:46.882Z,100113
2017-07-22T16:37:50.139Z,100115
2017-07-22T16:42:53.342Z,100111
2017-07-22T16:47:56.547Z,100109
2017-07-22T16:52:59.776Z,100111
2017-07-22T16:58:02.985Z,100106
2017-07-22T17:03:06.200Z,100098
2017-07-22T17:08:09.411Z,100099
2017-07-22T17:13:13.488Z,100100
2017-07-22T17:18:16.783Z,100100
2017-07-22T17:23:19.995Z,100102
2017-07-22T17:28:23.204Z,100098
2017-07-22T17:33:26.423Z,100093
2017-07-22T17:38:29.632Z,100092
2017-07-22T17:43:32.849Z,100093
2017-07-22T17:48:36.043Z,100081
2017-07-22T17:53:39.311Z,100081
2017-07-22T17:58:43.287Z,100083
2017-07-22T18:03:46.501Z,100087
2017-07-22T18:08:49.708Z,100087
2017-07-22T18:13:52.922Z,100079
2017-07-22T18:18:56.338Z,100082
2017-07-22T18:23:59.530Z,100082
2017-07-22T18:29:02.742Z,100077
2017-07-22T18:34:05.941Z,100079
2017-07-22T18:39:09.119Z,100059
2017-07-22T18:44:12.349Z,100073
2017-07-22T18:49:15.545Z,100069
2017-07-22T18:54:18.738Z,100073
2017-07-22T18:59:21.963Z,100073
2017-07-22T19:04:25.217Z,100092
2017-07-22T19:09:29.212Z,100093
2017-07-22T19:14:32.419Z,100084
2017-07-22T19:19:35.659Z,100094
2017-07-22T19:24:38.860Z,100091
2017-07-22T19:29:42.094Z,100076
2017-07-22T19:34:45.289Z,100081
2017-07-22T19:39:49.242Z,100091
2017-07-22T19:44:52.451Z,100078
2017-07-22T19:49:55.734Z,100083
2017-07-22T19:54:59.672Z,100076
2017-07-22T20:00:02.907Z,100077
2017-07-22T20:05:06.114Z,100075
2017-07-22T20:10:09.343Z,100065
2017-07-22T20:15:12.562Z,100058
2017-07-22T20:20:15.777Z,100055
2017-07-22T20:25:19.741Z,100051
2017-07-22T20:30:22.940Z,100049
2017-07-22T20:35:26.076Z,100057
2017-07-22T20:40:29.256Z,100058
2017-07-22T20:45:32.442Z,100070
2017-07-22T20:50:36.402Z,100069
2017-07-22T20:55:39.570Z,100065
2017-07-22T21:00:42.743Z,100053
2017-07-22T21:05:45.957Z,100053
2017-07-22T21:10:49.189Z,100048
2017-07-22T21:15:53.177Z,100033
2017-07-22T21:20:56.378Z,100031
2017-07-22T21:25:59.602Z,100023
2017-07-22T21:31:02.796Z,100020
2017-07-22T21:36:06.001Z,100007
2017-07-22T21:41:09.201Z,99992
2017-07-22T21:46:12.414Z,99983
2017-07-22T21:51:15.609Z,99976
2017-07-22T21:56:18.798Z,99962
2017-07-22T22:01:22.019Z,99984
2017-07-22T22:06:25.330Z,99989
2017-07-22T22:11:28.530Z,99985
2017-07-22T22:16:32.026Z,99964
2017-07-22T22:21:35.164Z,99985
2017-07-22T22:26:38.373Z,99988
2017-07-22T22:31:41.562Z,100125
2017-07-22T22:36:44.859Z,100135
2017-07-22T22:41:48.023Z,100107
2017-07-22T22:46:51.995Z,100124
2017-07-22T22:51:55.154Z,100132
2017-07-22T22:56:59.094Z,100123
2017-07-22T23:02:02.289Z,100140
2017-07-22T23:07:06.393Z,100121
2017-07-22T23:12:09.600Z,100110
2017-07-22T23:17:12.782Z,100102
2017-07-22T23:22:15.973Z,100100
2017-07-22T23:27:19.189Z,100084
2017-07-22T23:32:22.434Z,100096
2017-07-22T23:37:25.676Z,100101
2017-07-22T23:42:28.863Z,100118
2017-07-22T23:47:32.887Z,100138
2017-07-22T23:52:36.192Z,100132
2017-07-22T23:57:39.384Z,100137
